ADDS METAR Data INFO
IDs: Format: Raw Decoded Include TAF

Data at: 2257 UTC 22 Jun 2018

KSRQ 222253Z AUTO 28010KT 10SM FEW024 31/24 A2993 RMK AO2 SLP136 T03060239
KSRQ 222153Z AUTO 28012KT 10SM CLR 31/24 A2994 RMK AO2 SLP137 T03110244
KSRQ 222053Z AUTO 28014KT 10SM FEW027 32/24 A2995 RMK AO2 SLP141 T03220239 56013
KSRQ 221953Z AUTO 28011KT 10SM CLR 32/24 A2996 RMK AO2 SLP144 T03220244
KSRQ 221853Z AUTO 27012KT 10SM CLR 32/24 A2997 RMK AO2 SLP149 T03170244
KSRQ 221753Z AUTO 28012KT 10SM CLR 32/24 A2999 RMK AO2 SLP154 T03220239 10322 20289 58003
KSRQ 221653Z AUTO 26011KT 10SM CLR 32/24 A3000 RMK AO2 SLP157 T03170244
KSRQ 221553Z AUTO 28009KT 10SM CLR 32/24 A3000 RMK AO2 SLP157 T03170244
KSRQ 221453Z AUTO 28010KT 10SM CLR 31/24 A3000 RMK AO2 SLP157 T03110239 51008
KSRQ 221353Z AUTO 27009KT 10SM CLR 31/24 A2999 RMK AO2 SLP155 T03060239
KSRQ 221322Z AUTO 28009KT 10SM FEW025 30/24 A2999 RMK AO2 LTG DSNT SE AND S T03000239
KSRQ 221307Z AUTO 28010KT 10SM VCTS SCT025 30/24 A2999 RMK AO2 LTG DSNT SE T03000239
KSRQ 221253Z AUTO 27010KT 10SM SCT023 SCT029 29/24 A2999 RMK AO2 SLP154 T02940239
KSRQ 221153Z AUTO 28008KT 10SM FEW023 29/24 A2997 RMK AO2 SLP149 7//// T02890239 10289 20278 53019
KSRQ 221053Z AUTO 27008KT 10SM FEW023 28/23 A2995 RMK AO2 SLP141 T02830233
KSRQ 220953Z AUTO 28006KT 10SM FEW024 28/24 A2993 RMK AO2 SLP135 T02830239
KSRQ 220920Z AUTO 26008KT 10SM FEW021 SCT030 28/24 A2992 RMK AO2 T02830239
KSRQ 220910Z AUTO 28008KT 10SM SCT021 BKN029 BKN034 28/24 A2992 RMK AO2 T02830244
KSRQ 220853Z AUTO 24007KT 10SM FEW021 FEW028 28/24 A2992 RMK AO2 SLP130 T02830244 55006
KSRQ 220753Z AUTO 26007KT 10SM FEW022 28/24 A2991 RMK AO2 SLP128 T02830239
KSRQ 220653Z AUTO 26007KT 10SM FEW020 28/24 A2992 RMK AO2 SLP132 T02830244
KSRQ 220553Z AUTO 26008KT 10SM FEW020 28/24 A2994 RMK AO2 SLP137 T02830244 10300 20283 58009
KSRQ 220453Z AUTO 28008KT 10SM CLR 28/24 A2995 RMK AO2 SLP142 T02830244 403280261
KSRQ 220353Z AUTO 28007KT 10SM FEW023 29/24 A2997 RMK AO2 SLP147 T02890244
KSRQ 220253Z AUTO 30009KT 10SM FEW023 29/24 A2996 RMK AO2 SLP146 T02890239 53014
KSRQ 220153Z AUTO 27009KT 10SM CLR 29/23 A2995 RMK AO2 SLP142 T02890233
KSRQ 220053Z AUTO 28007KT 10SM CLR 29/23 A2993 RMK AO2 SLP136 T02890228
KSRQ 212353Z AUTO 28008KT 10SM CLR 30/23 A2992 RMK AO2 SLP132 T03000233 10328 20300 53002
KSRQ 212253Z AUTO 30010KT 10SM FEW025 30/24 A2992 RMK AO2 SLP130 T03000239
KSRQ 212153Z AUTO 27010KT 10SM CLR 31/24 A2991 RMK AO2 SLP127 T03110244
KSRQ 212053Z AUTO 27011KT 10SM CLR 31/25 A2992 RMK AO2 SLP130 T03110250 55008
KSRQ 211953Z AUTO 29011KT 10SM CLR 32/24 A2992 RMK AO2 SLP129 T03170244
KSRQ 211853Z AUTO 29010KT 10SM CLR 31/24 A2993 RMK AO2 SLP134 T03110244
KSRQ 211753Z AUTO 27010KT 10SM CLR 32/24 A2994 RMK AO2 SLP138 6//// T03170239 10322 20283
KSRQ 211653Z AUTO 28011KT 10SM CLR 32/23 A2995 RMK AO2 SLP142 T03220228
KSRQ 211353Z 29008KT 10SM FEW023 31/25 A2995 RMK AO2 SLP142 T03060250
KSRQ 211253Z 30008KT 10SM CLR 29/24 A2997 RMK AO2 SLP147 T02890244
KSRQ 211153Z 28007KT 10SM CLR 28/24 A2996 RMK AO2 SLP143 T02830244 10289 20261 51015